Alder Creek, New York
Current Conditions -  °F | °C
As of 7:53 PM on Sunday 23 Nov 2014 (Local Time) from KRME Reporting Station
Clear Clear  
Wind Chill: 40°   Ceiling: Unl
Heat Index: 45°   Visibility: 10mi
Dew Point: 38°   Wind: 9mph
Humidity: 76%   Direction: 90°E
Pressure: 29.98"   Gusts: NA
Location:  43.42°N, 75.23°W
Report Text: KRME 240053Z 09008KT 10SM CLR 07/03 A2998 RMK AO2 SLP154 T00720033
Loading
Personal Weather Stations






























Interactive Weather Map New forecast layout! Learn more

10-Day Weather Forecast

Advertisements
Track Severe Weather on mobile